sensor_id;sensor_type;location;lat;lon;timestamp;temperature;humidity
16134;DHT22;8172;45.018;5.972;2023-02-08T00:04:31;-0.70;51.90
16134;DHT22;8172;45.018;5.972;2023-02-08T00:09:38;-0.80;51.80
16134;DHT22;8172;45.018;5.972;2023-02-08T00:14:45;-0.80;51.90
16134;DHT22;8172;45.018;5.972;2023-02-08T00:19:52;-0.80;51.90
16134;DHT22;8172;45.018;5.972;2023-02-08T00:24:59;-0.80;51.70
16134;DHT22;8172;45.018;5.972;2023-02-08T00:30:06;-0.90;51.80
16134;DHT22;8172;45.018;5.972;2023-02-08T00:35:14;-0.90;52.00
16134;DHT22;8172;45.018;5.972;2023-02-08T00:40:21;-0.90;52.10
16134;DHT22;8172;45.018;5.972;2023-02-08T00:45:28;-1.00;52.20
16134;DHT22;8172;45.018;5.972;2023-02-08T00:50:36;-1.00;52.30
16134;DHT22;8172;45.018;5.972;2023-02-08T00:55:49;-1.00;52.30
16134;DHT22;8172;45.018;5.972;2023-02-08T01:00:53;-1.00;52.30
16134;DHT22;8172;45.018;5.972;2023-02-08T01:06:02;-1.00;52.40
16134;DHT22;8172;45.018;5.972;2023-02-08T01:11:12;-1.00;52.50
16134;DHT22;8172;45.018;5.972;2023-02-08T01:16:21;-1.00;52.80
16134;DHT22;8172;45.018;5.972;2023-02-08T01:21:32;-1.00;52.90
16134;DHT22;8172;45.018;5.972;2023-02-08T01:26:39;-1.00;52.80
16134;DHT22;8172;45.018;5.972;2023-02-08T01:31:46;-1.00;53.00
16134;DHT22;8172;45.018;5.972;2023-02-08T01:36:53;-1.10;53.40
16134;DHT22;8172;45.018;5.972;2023-02-08T01:42:00;-1.10;53.50
16134;DHT22;8172;45.018;5.972;2023-02-08T01:47:07;-1.10;53.50
16134;DHT22;8172;45.018;5.972;2023-02-08T01:52:17;-1.10;53.60
16134;DHT22;8172;45.018;5.972;2023-02-08T01:57:25;-1.10;53.80
16134;DHT22;8172;45.018;5.972;2023-02-08T02:02:33;-1.20;54.10
16134;DHT22;8172;45.018;5.972;2023-02-08T02:07:41;-1.20;54.20
16134;DHT22;8172;45.018;5.972;2023-02-08T02:12:51;-1.10;54.20
16134;DHT22;8172;45.018;5.972;2023-02-08T02:18:00;-1.10;54.30
16134;DHT22;8172;45.018;5.972;2023-02-08T02:43:50;-1.00;54.70
16134;DHT22;8172;45.018;5.972;2023-02-08T02:48:58;-1.00;54.80
16134;DHT22;8172;45.018;5.972;2023-02-08T02:54:07;-0.90;54.80
16134;DHT22;8172;45.018;5.972;2023-02-08T02:59:15;-0.90;55.00
16134;DHT22;8172;45.018;5.972;2023-02-08T03:09:37;-0.80;55.10
16134;DHT22;8172;45.018;5.972;2023-02-08T03:14:48;-0.80;55.00
16134;DHT22;8172;45.018;5.972;2023-02-08T03:30:15;-0.80;54.70
16134;DHT22;8172;45.018;5.972;2023-02-08T03:35:25;-0.90;54.80
16134;DHT22;8172;45.018;5.972;2023-02-08T03:40:35;-0.90;54.80
16134;DHT22;8172;45.018;5.972;2023-02-08T03:45:46;-0.90;55.00
16134;DHT22;8172;45.018;5.972;2023-02-08T03:50:54;-0.90;55.00
16134;DHT22;8172;45.018;5.972;2023-02-08T03:56:05;-0.90;55.10
16134;DHT22;8172;45.018;5.972;2023-02-08T04:01:18;-0.90;55.20
16134;DHT22;8172;45.018;5.972;2023-02-08T04:06:22;-1.00;55.20
16134;DHT22;8172;45.018;5.972;2023-02-08T04:11:30;-1.00;55.20
16134;DHT22;8172;45.018;5.972;2023-02-08T04:16:37;-1.00;55.30
16134;DHT22;8172;45.018;5.972;2023-02-08T04:21:44;-1.00;55.40
16134;DHT22;8172;45.018;5.972;2023-02-08T04:26:51;-1.00;55.40
16134;DHT22;8172;45.018;5.972;2023-02-08T04:31:58;-1.00;55.40
16134;DHT22;8172;45.018;5.972;2023-02-08T04:37:06;-1.00;55.30
16134;DHT22;8172;45.018;5.972;2023-02-08T04:42:13;-1.00;55.10
16134;DHT22;8172;45.018;5.972;2023-02-08T04:47:20;-1.00;55.10
16134;DHT22;8172;45.018;5.972;2023-02-08T04:52:27;-0.90;54.80
16134;DHT22;8172;45.018;5.972;2023-02-08T04:57:34;-0.90;54.80
16134;DHT22;8172;45.018;5.972;2023-02-08T05:02:41;-0.90;54.60
16134;DHT22;8172;45.018;5.972;2023-02-08T05:07:48;-0.90;54.60
16134;DHT22;8172;45.018;5.972;2023-02-08T05:12:55;-0.90;54.50
16134;DHT22;8172;45.018;5.972;2023-02-08T05:18:02;-0.90;54.50
16134;DHT22;8172;45.018;5.972;2023-02-08T05:23:09;-0.90;54.40
16134;DHT22;8172;45.018;5.972;2023-02-08T05:28:17;-0.90;54.40
16134;DHT22;8172;45.018;5.972;2023-02-08T05:33:24;-0.90;54.30
16134;DHT22;8172;45.018;5.972;2023-02-08T05:38:31;-1.00;54.20
16134;DHT22;8172;45.018;5.972;2023-02-08T05:43:38;-1.00;54.20
16134;DHT22;8172;45.018;5.972;2023-02-08T05:48:46;-1.00;54.00
16134;DHT22;8172;45.018;5.972;2023-02-08T05:53:53;-1.10;53.90
16134;DHT22;8172;45.018;5.972;2023-02-08T05:59:01;-1.10;53.80
16134;DHT22;8172;45.018;5.972;2023-02-08T06:04:08;-1.10;53.80
16134;DHT22;8172;45.018;5.972;2023-02-08T06:09:15;-1.10;53.80
16134;DHT22;8172;45.018;5.972;2023-02-08T06:14:22;-1.10;53.60
16134;DHT22;8172;45.018;5.972;2023-02-08T06:19:29;-1.10;53.50
16134;DHT22;8172;45.018;5.972;2023-02-08T06:24:36;-1.10;53.60
16134;DHT22;8172;45.018;5.972;2023-02-08T06:29:44;-1.10;53.50
16134;DHT22;8172;45.018;5.972;2023-02-08T06:34:51;-1.10;53.60
16134;DHT22;8172;45.018;5.972;2023-02-08T06:39:58;-1.10;53.50
16134;DHT22;8172;45.018;5.972;2023-02-08T06:45:07;-1.20;53.60
16134;DHT22;8172;45.018;5.972;2023-02-08T06:50:16;-1.20;53.80
16134;DHT22;8172;45.018;5.972;2023-02-08T06:55:22;-1.20;53.70
16134;DHT22;8172;45.018;5.972;2023-02-08T07:00:30;-1.10;53.60
16134;DHT22;8172;45.018;5.972;2023-02-08T07:05:38;-1.20;53.60
16134;DHT22;8172;45.018;5.972;2023-02-08T07:10:45;-1.20;53.50
16134;DHT22;8172;45.018;5.972;2023-02-08T07:15:53;-1.20;53.40
16134;DHT22;8172;45.018;5.972;2023-02-08T07:21:00;-1.20;53.50
16134;DHT22;8172;45.018;5.972;2023-02-08T07:26:10;-1.20;53.50
16134;DHT22;8172;45.018;5.972;2023-02-08T07:31:19;-1.20;53.40
16134;DHT22;8172;45.018;5.972;2023-02-08T07:36:26;-1.20;53.60
16134;DHT22;8172;45.018;5.972;2023-02-08T07:41:33;-1.10;53.50
16134;DHT22;8172;45.018;5.972;2023-02-08T07:46:40;-1.10;53.40
16134;DHT22;8172;45.018;5.972;2023-02-08T07:51:47;-1.00;53.30
16134;DHT22;8172;45.018;5.972;2023-02-08T07:56:55;-1.00;53.20
16134;DHT22;8172;45.018;5.972;2023-02-08T08:02:02;-1.00;53.20
16134;DHT22;8172;45.018;5.972;2023-02-08T08:07:09;-0.90;53.20
16134;DHT22;8172;45.018;5.972;2023-02-08T08:12:17;-0.90;53.10
16134;DHT22;8172;45.018;5.972;2023-02-08T08:17:24;-0.90;53.30
16134;DHT22;8172;45.018;5.972;2023-02-08T08:22:32;-0.90;53.30
16134;DHT22;8172;45.018;5.972;2023-02-08T08:27:40;-0.90;53.30
16134;DHT22;8172;45.018;5.972;2023-02-08T08:32:47;-0.90;53.30
16134;DHT22;8172;45.018;5.972;2023-02-08T08:37:54;-0.90;53.40
16134;DHT22;8172;45.018;5.972;2023-02-08T08:43:02;-0.90;53.50
16134;DHT22;8172;45.018;5.972;2023-02-08T08:48:14;-0.80;53.50
16134;DHT22;8172;45.018;5.972;2023-02-08T08:53:25;-0.80;53.60
16134;DHT22;8172;45.018;5.972;2023-02-08T08:58:32;-0.70;53.70
16134;DHT22;8172;45.018;5.972;2023-02-08T09:03:39;-0.60;53.90
16134;DHT22;8172;45.018;5.972;2023-02-08T09:08:46;-0.40;53.90
16134;DHT22;8172;45.018;5.972;2023-02-08T09:13:54;-0.20;53.90
16134;DHT22;8172;45.018;5.972;2023-02-08T09:19:03;0.00;53.80
16134;DHT22;8172;45.018;5.972;2023-02-08T09:24:10;0.30;53.60
16134;DHT22;8172;45.018;5.972;2023-02-08T09:29:17;0.50;53.50
16134;DHT22;8172;45.018;5.972;2023-02-08T09:34:24;0.70;53.50
16134;DHT22;8172;45.018;5.972;2023-02-08T09:39:32;0.90;53.40
16134;DHT22;8172;45.018;5.972;2023-02-08T09:55:00;1.40;52.90
16134;DHT22;8172;45.018;5.972;2023-02-08T10:00:12;1.50;52.80
16134;DHT22;8172;45.018;5.972;2023-02-08T10:05:19;1.70;52.70
16134;DHT22;8172;45.018;5.972;2023-02-08T10:10:34;1.80;52.40
16134;DHT22;8172;45.018;5.972;2023-02-08T10:15:40;2.10;52.00
16134;DHT22;8172;45.018;5.972;2023-02-08T10:31:10;2.50;51.40
16134;DHT22;8172;45.018;5.972;2023-02-08T10:36:18;2.60;50.90
16134;DHT22;8172;45.018;5.972;2023-02-08T10:41:30;2.70;50.20
16134;DHT22;8172;45.018;5.972;2023-02-08T10:46:39;2.70;50.00
16134;DHT22;8172;45.018;5.972;2023-02-08T10:51:46;2.70;49.90
16134;DHT22;8172;45.018;5.972;2023-02-08T10:56:58;2.80;49.60
16134;DHT22;8172;45.018;5.972;2023-02-08T11:02:17;2.90;49.70
16134;DHT22;8172;45.018;5.972;2023-02-08T11:07:19;3.00;49.20
16134;DHT22;8172;45.018;5.972;2023-02-08T11:12:26;3.10;49.50
16134;DHT22;8172;45.018;5.972;2023-02-08T11:17:33;3.20;49.70
16134;DHT22;8172;45.018;5.972;2023-02-08T11:22:43;3.30;50.10
16134;DHT22;8172;45.018;5.972;2023-02-08T11:27:51;3.40;49.90
16134;DHT22;8172;45.018;5.972;2023-02-08T11:38:16;3.70;50.10
16134;DHT22;8172;45.018;5.972;2023-02-08T11:43:22;3.90;50.00
16134;DHT22;8172;45.018;5.972;2023-02-08T11:53:40;4.10;49.80
16134;DHT22;8172;45.018;5.972;2023-02-08T12:03:59;4.30;49.60
16134;DHT22;8172;45.018;5.972;2023-02-08T12:14:24;4.50;49.40
16134;DHT22;8172;45.018;5.972;2023-02-08T12:55:38;5.30;48.60
16134;DHT22;8172;45.018;5.972;2023-02-08T13:00:48;5.40;48.00
16134;DHT22;8172;45.018;5.972;2023-02-08T13:05:56;5.50;48.10
16134;DHT22;8172;45.018;5.972;2023-02-08T13:11:10;5.50;47.90
16134;DHT22;8172;45.018;5.972;2023-02-08T13:16:20;5.60;47.90
16134;DHT22;8172;45.018;5.972;2023-02-08T13:21:29;5.70;47.80
16134;DHT22;8172;45.018;5.972;2023-02-08T13:26:38;5.80;47.80
16134;DHT22;8172;45.018;5.972;2023-02-08T13:31:50;5.90;47.70
16134;DHT22;8172;45.018;5.972;2023-02-08T13:36:59;6.00;47.60
16134;DHT22;8172;45.018;5.972;2023-02-08T13:57:49;6.30;46.80
16134;DHT22;8172;45.018;5.972;2023-02-08T14:08:02;6.40;46.60
16134;DHT22;8172;45.018;5.972;2023-02-08T14:18:23;6.40;46.20
16134;DHT22;8172;45.018;5.972;2023-02-08T14:23:33;6.40;45.80
16134;DHT22;8172;45.018;5.972;2023-02-08T14:28:43;6.50;45.50
16134;DHT22;8172;45.018;5.972;2023-02-08T14:33:52;6.50;45.00
16134;DHT22;8172;45.018;5.972;2023-02-08T14:49:18;6.10;43.40
16134;DHT22;8172;45.018;5.972;2023-02-08T14:54:26;5.80;43.60
16134;DHT22;8172;45.018;5.972;2023-02-08T14:59:35;5.50;43.90
16134;DHT22;8172;45.018;5.972;2023-02-08T15:04:45;5.30;44.00
16134;DHT22;8172;45.018;5.972;2023-02-08T15:09:52;5.00;44.30
16134;DHT22;8172;45.018;5.972;2023-02-08T15:15:01;4.80;44.80
16134;DHT22;8172;45.018;5.972;2023-02-08T15:20:16;4.60;45.20
16134;DHT22;8172;45.018;5.972;2023-02-08T15:30:30;4.30;45.00
16134;DHT22;8172;45.018;5.972;2023-02-08T15:35:36;4.10;45.00
16134;DHT22;8172;45.018;5.972;2023-02-08T15:45:56;3.80;45.30
16134;DHT22;8172;45.018;5.972;2023-02-08T15:51:04;3.70;45.40
16134;DHT22;8172;45.018;5.972;2023-02-08T15:56:15;3.50;45.60
16134;DHT22;8172;45.018;5.972;2023-02-08T16:01:23;3.40;45.70
16134;DHT22;8172;45.018;5.972;2023-02-08T16:06:34;3.40;46.20
16134;DHT22;8172;45.018;5.972;2023-02-08T16:11:41;3.40;46.10
16134;DHT22;8172;45.018;5.972;2023-02-08T16:16:53;3.30;46.70
16134;DHT22;8172;45.018;5.972;2023-02-08T16:27:18;3.30;46.90
16134;DHT22;8172;45.018;5.972;2023-02-08T16:32:27;3.30;47.10
16134;DHT22;8172;45.018;5.972;2023-02-08T16:37:33;3.20;46.80
16134;DHT22;8172;45.018;5.972;2023-02-08T16:42:42;3.10;46.80
16134;DHT22;8172;45.018;5.972;2023-02-08T16:47:54;3.00;46.60
16134;DHT22;8172;45.018;5.972;2023-02-08T16:53:03;2.90;46.90
16134;DHT22;8172;45.018;5.972;2023-02-08T16:58:12;2.80;46.90
16134;DHT22;8172;45.018;5.972;2023-02-08T17:03:20;2.70;46.90
16134;DHT22;8172;45.018;5.972;2023-02-08T17:08:27;2.60;46.90
16134;DHT22;8172;45.018;5.972;2023-02-08T17:13:34;2.60;47.00
16134;DHT22;8172;45.018;5.972;2023-02-08T17:18:41;2.50;47.10
16134;DHT22;8172;45.018;5.972;2023-02-08T17:23:49;2.50;47.30
16134;DHT22;8172;45.018;5.972;2023-02-08T17:28:57;2.40;47.40
16134;DHT22;8172;45.018;5.972;2023-02-08T17:34:04;2.30;48.10
16134;DHT22;8172;45.018;5.972;2023-02-08T17:39:12;2.40;47.80
16134;DHT22;8172;45.018;5.972;2023-02-08T17:44:21;2.40;47.70
16134;DHT22;8172;45.018;5.972;2023-02-08T17:49:29;2.30;47.80
16134;DHT22;8172;45.018;5.972;2023-02-08T17:54:37;2.30;47.80
16134;DHT22;8172;45.018;5.972;2023-02-08T17:59:44;2.20;47.90
16134;DHT22;8172;45.018;5.972;2023-02-08T18:04:51;2.10;48.10
16134;DHT22;8172;45.018;5.972;2023-02-08T18:09:58;2.10;48.30
16134;DHT22;8172;45.018;5.972;2023-02-08T18:15:07;2.00;48.50
16134;DHT22;8172;45.018;5.972;2023-02-08T18:20:14;2.00;48.60
16134;DHT22;8172;45.018;5.972;2023-02-08T18:25:21;2.00;48.70
16134;DHT22;8172;45.018;5.972;2023-02-08T18:30:28;1.90;48.70
16134;DHT22;8172;45.018;5.972;2023-02-08T18:35:36;1.90;48.80
16134;DHT22;8172;45.018;5.972;2023-02-08T18:40:43;1.90;48.90
16134;DHT22;8172;45.018;5.972;2023-02-08T18:51:02;1.90;48.80
16134;DHT22;8172;45.018;5.972;2023-02-08T18:56:10;1.90;48.90
16134;DHT22;8172;45.018;5.972;2023-02-08T19:01:20;1.80;48.90
16134;DHT22;8172;45.018;5.972;2023-02-08T19:06:29;1.80;49.00
16134;DHT22;8172;45.018;5.972;2023-02-08T19:11:38;1.70;49.00
16134;DHT22;8172;45.018;5.972;2023-02-08T19:16:46;1.70;49.10
16134;DHT22;8172;45.018;5.972;2023-02-08T19:21:53;1.70;49.10
16134;DHT22;8172;45.018;5.972;2023-02-08T19:27:01;1.60;49.20
16134;DHT22;8172;45.018;5.972;2023-02-08T19:32:07;1.60;49.30
16134;DHT22;8172;45.018;5.972;2023-02-08T19:37:14;1.60;49.40
16134;DHT22;8172;45.018;5.972;2023-02-08T19:42:22;1.50;49.40
16134;DHT22;8172;45.018;5.972;2023-02-08T19:47:28;1.50;49.50
16134;DHT22;8172;45.018;5.972;2023-02-08T19:52:37;1.40;49.50
16134;DHT22;8172;45.018;5.972;2023-02-08T19:57:46;1.40;49.60
16134;DHT22;8172;45.018;5.972;2023-02-08T20:02:52;1.40;49.70
16134;DHT22;8172;45.018;5.972;2023-02-08T20:08:00;1.30;49.70
16134;DHT22;8172;45.018;5.972;2023-02-08T20:13:07;1.30;49.90
16134;DHT22;8172;45.018;5.972;2023-02-08T20:18:16;1.30;49.90
16134;DHT22;8172;45.018;5.972;2023-02-08T20:23:24;1.20;50.00
16134;DHT22;8172;45.018;5.972;2023-02-08T20:28:31;1.20;50.20
16134;DHT22;8172;45.018;5.972;2023-02-08T20:33:38;1.10;50.10
16134;DHT22;8172;45.018;5.972;2023-02-08T20:38:46;1.20;50.10
16134;DHT22;8172;45.018;5.972;2023-02-08T20:43:54;1.20;50.00
16134;DHT22;8172;45.018;5.972;2023-02-08T20:49:02;1.20;49.90
16134;DHT22;8172;45.018;5.972;2023-02-08T20:54:10;1.20;50.00
16134;DHT22;8172;45.018;5.972;2023-02-08T20:59:17;1.20;50.00
16134;DHT22;8172;45.018;5.972;2023-02-08T21:04:24;1.20;50.00
16134;DHT22;8172;45.018;5.972;2023-02-08T21:09:32;1.10;49.90
16134;DHT22;8172;45.018;5.972;2023-02-08T21:14:39;1.10;49.90
16134;DHT22;8172;45.018;5.972;2023-02-08T21:19:47;1.10;49.80
16134;DHT22;8172;45.018;5.972;2023-02-08T21:24:54;1.10;49.70
16134;DHT22;8172;45.018;5.972;2023-02-08T21:30:01;1.10;49.50
16134;DHT22;8172;45.018;5.972;2023-02-08T21:35:09;1.00;49.30
16134;DHT22;8172;45.018;5.972;2023-02-08T21:40:17;1.00;49.10
16134;DHT22;8172;45.018;5.972;2023-02-08T21:45:24;1.00;48.90
16134;DHT22;8172;45.018;5.972;2023-02-08T21:50:31;1.00;48.80
16134;DHT22;8172;45.018;5.972;2023-02-08T21:55:43;1.00;48.60
16134;DHT22;8172;45.018;5.972;2023-02-08T22:00:50;1.00;48.60
16134;DHT22;8172;45.018;5.972;2023-02-08T22:05:57;0.90;48.40
16134;DHT22;8172;45.018;5.972;2023-02-08T22:11:05;0.90;48.20
16134;DHT22;8172;45.018;5.972;2023-02-08T22:16:18;0.90;48.00
16134;DHT22;8172;45.018;5.972;2023-02-08T22:21:27;0.80;47.80
16134;DHT22;8172;45.018;5.972;2023-02-08T22:26:34;0.80;47.70
16134;DHT22;8172;45.018;5.972;2023-02-08T22:31:41;0.90;47.40
16134;DHT22;8172;45.018;5.972;2023-02-08T22:36:48;0.90;47.40
16134;DHT22;8172;45.018;5.972;2023-02-08T22:41:55;0.90;47.30
16134;DHT22;8172;45.018;5.972;2023-02-08T22:47:03;0.90;47.30
16134;DHT22;8172;45.018;5.972;2023-02-08T22:52:11;0.90;47.20
16134;DHT22;8172;45.018;5.972;2023-02-08T22:57:19;0.80;47.10
16134;DHT22;8172;45.018;5.972;2023-02-08T23:02:26;0.80;47.10
16134;DHT22;8172;45.018;5.972;2023-02-08T23:07:33;0.80;47.00
16134;DHT22;8172;45.018;5.972;2023-02-08T23:12:40;0.70;47.00
16134;DHT22;8172;45.018;5.972;2023-02-08T23:17:47;0.70;47.00
16134;DHT22;8172;45.018;5.972;2023-02-08T23:22:54;0.70;46.90
16134;DHT22;8172;45.018;5.972;2023-02-08T23:28:01;0.70;46.90
16134;DHT22;8172;45.018;5.972;2023-02-08T23:33:08;0.70;46.90
16134;DHT22;8172;45.018;5.972;2023-02-08T23:38:15;0.60;46.80
16134;DHT22;8172;45.018;5.972;2023-02-08T23:43:22;0.60;46.80
16134;DHT22;8172;45.018;5.972;2023-02-08T23:48:29;0.60;46.80
16134;DHT22;8172;45.018;5.972;2023-02-08T23:53:36;0.60;46.80
16134;DHT22;8172;45.018;5.972;2023-02-08T23:58:45;0.50;46.80
